Ulan-Ude, Russia
Current Conditions -  °F | °C
As of 2:00 AM on Saturday 22 Nov 2014 (Local Time) from UIUU Reporting Station
Haze Haze  
Wind Chill: -4°   Ceiling: Unl
Heat Index: -4°   Visibility: 2.5mi
Dew Point: -8°   Wind: 2mph
Humidity: 85%   Direction: NA
Pressure: 29.94"   Gusts: NA
Location:  51.83°N, 107.62°E
Report Text: UIUU 211800Z VRB01MPS 4000 BR SKC M20/M22 Q1014 NOSIG RMKQFE716/0955 26410560
Loading
Personal Weather Stations






























Interactive Weather Map New forecast layout! Learn more

10-Day Weather Forecast

Advertisements
Track Severe Weather on mobile